createdAt,value
2018-09-09T00:00:38.463Z,942.76
2018-09-09T00:01:39.154Z,942.74
2018-09-09T00:02:39.289Z,942.74
2018-09-09T00:03:39.536Z,942.73
2018-09-09T00:04:39.946Z,942.73
2018-09-09T00:05:40.083Z,942.72
2018-09-09T00:06:41.049Z,942.71
2018-09-09T00:07:41.187Z,942.7
2018-09-09T00:08:41.873Z,942.72
2018-09-09T00:09:41.977Z,942.66
2018-09-09T00:10:42.114Z,942.69
2018-09-09T00:11:42.571Z,942.7
2018-09-09T00:12:42.984Z,942.67
2018-09-09T00:13:43.949Z,942.69
2018-09-09T00:14:44.640Z,942.66
2018-09-09T00:15:45.051Z,942.65
2018-09-09T00:16:45.740Z,942.64
2018-09-09T00:17:46.708Z,942.63
2018-09-09T00:18:47.397Z,942.62
2018-09-09T00:19:48.381Z,942.6
2018-09-09T00:20:48.514Z,942.6
2018-09-09T00:21:49.484Z,942.59
2018-09-09T00:22:49.893Z,942.61
2018-09-09T00:23:50.025Z,942.59
2018-09-09T00:24:50.988Z,942.55
2018-09-09T00:25:51.693Z,942.58
2018-09-09T00:26:51.933Z,942.58
2018-09-09T00:27:52.342Z,942.6
2018-09-09T00:28:52.476Z,942.58
2018-09-09T00:29:53.455Z,942.55
2018-09-09T00:30:54.148Z,942.56
2018-09-09T00:31:55.123Z,942.57
2018-09-09T00:32:55.261Z,942.57
2018-09-09T00:33:55.664Z,942.52
2018-09-09T00:34:56.075Z,942.51
2018-09-09T00:35:56.211Z,942.52
2018-09-09T00:36:56.624Z,942.54
2018-09-09T00:37:56.759Z,942.51
2018-09-09T00:38:56.895Z,942.53
2018-09-09T00:39:57.605Z,942.48
2018-09-09T00:40:58.018Z,942.49
2018-09-09T00:41:58.702Z,942.48
2018-09-09T00:42:59.114Z,942.51
2018-09-09T00:43:59.805Z,942.52
2018-09-09T00:45:00.494Z,942.52
2018-09-09T00:46:00.629Z,942.52
2018-09-09T00:47:01.050Z,942.47
2018-09-09T00:48:01.449Z,942.47
2018-09-09T00:49:01.583Z,942.5
2018-09-09T00:50:01.847Z,942.45
2018-09-09T00:51:02.253Z,942.46
2018-09-09T00:52:02.945Z,942.45
2018-09-09T00:53:03.356Z,942.44
2018-09-09T00:54:03.493Z,942.43
2018-09-09T00:55:03.906Z,942.44
2018-09-09T00:56:04.039Z,942.42
2018-09-09T00:57:04.454Z,942.46
2018-09-09T00:58:04.587Z,942.4
2018-09-09T00:59:04.999Z,942.41
2018-09-09T01:00:05.978Z,942.38
2018-09-09T01:01:06.390Z,942.41
2018-09-09T01:02:07.080Z,942.4
2018-09-09T01:03:07.769Z,942.45
2018-09-09T01:04:08.181Z,942.43
2018-09-09T01:05:08.314Z,942.44
2018-09-09T01:06:09.285Z,942.43
2018-09-09T01:07:09.696Z,942.45
2018-09-09T01:08:10.108Z,942.48
2018-09-09T01:09:10.795Z,942.44
2018-09-09T01:10:11.335Z,942.41
2018-09-09T01:11:11.474Z,942.42
2018-09-09T01:12:11.881Z,942.37
2018-09-09T01:13:12.018Z,942.39
2018-09-09T01:14:12.709Z,942.38
2018-09-09T01:15:13.677Z,942.38
2018-09-09T01:16:14.091Z,942.38
2018-09-09T01:17:14.222Z,942.41
2018-09-09T01:18:14.355Z,942.38
2018-09-09T01:19:14.487Z,942.39
2018-09-09T01:20:15.193Z,942.38
2018-09-09T01:21:15.881Z,942.39
2018-09-09T01:22:16.292Z,942.39
2018-09-09T01:23:16.985Z,942.38
2018-09-09T01:24:17.672Z,942.39
2018-09-09T01:25:18.081Z,942.35
2018-09-09T01:26:18.491Z,942.37
2018-09-09T01:27:18.624Z,942.4
2018-09-09T01:28:19.321Z,942.36
2018-09-09T01:29:19.455Z,942.34
2018-09-09T01:30:20.159Z,942.35
2018-09-09T01:31:20.616Z,942.34
2018-09-09T01:32:20.751Z,942.32
2018-09-09T01:33:20.883Z,942.35
2018-09-09T01:34:21.573Z,942.31
2018-09-09T01:35:21.984Z,942.35
2018-09-09T01:36:22.401Z,942.35
2018-09-09T01:37:22.534Z,942.39
2018-09-09T01:38:23.223Z,942.36
2018-09-09T01:39:23.916Z,942.35
2018-09-09T01:40:24.455Z,942.4
2018-09-09T01:41:24.589Z,942.4
2018-09-09T01:42:25.282Z,942.39
2018-09-09T01:43:25.753Z,942.39
2018-09-09T01:44:25.887Z,942.36
2018-09-09T01:45:26.295Z,942.4
2018-09-09T01:46:26.984Z,942.39
2018-09-09T01:47:27.398Z,942.4
2018-09-09T01:48:28.088Z,942.43
2018-09-09T01:49:28.784Z,942.41
2018-09-09T01:50:29.317Z,942.42
2018-09-09T01:51:29.451Z,942.45
2018-09-09T01:52:29.868Z,942.44
2018-09-09T01:53:30.114Z,942.42
2018-09-09T01:54:30.803Z,942.42
2018-09-09T01:55:31.768Z,942.45
2018-09-09T01:56:32.179Z,942.45
2018-09-09T01:57:32.866Z,942.49
2018-09-09T01:58:32.996Z,942.48
2018-09-09T01:59:33.129Z,942.53
2018-09-09T02:00:33.835Z,942.56
2018-09-09T02:01:34.522Z,942.53
2018-09-09T02:02:34.939Z,942.56
2018-09-09T02:03:35.343Z,942.57
2018-09-09T02:04:35.753Z,942.59
2018-09-09T02:05:36.164Z,942.59
2018-09-09T02:06:36.574Z,942.59
2018-09-09T02:07:36.989Z,942.65
2018-09-09T02:08:37.230Z,942.66
2018-09-09T02:09:37.646Z,942.64
2018-09-09T02:10:38.349Z,942.66
2018-09-09T02:11:38.759Z,942.63
2018-09-09T02:12:39.447Z,942.65
2018-09-09T02:13:39.579Z,942.61
2018-09-09T02:14:39.989Z,942.65
2018-09-09T02:15:40.403Z,942.65
2018-09-09T02:16:40.811Z,942.63
2018-09-09T02:17:41.222Z,942.64
2018-09-09T02:18:41.911Z,942.63
2018-09-09T02:19:42.606Z,942.66
2018-09-09T02:20:42.858Z,942.7
2018-09-09T02:21:43.821Z,942.69
2018-09-09T02:22:44.509Z,942.7
2018-09-09T02:23:45.198Z,942.72
2018-09-09T02:24:45.611Z,942.75
2018-09-09T02:25:46.310Z,942.74
2018-09-09T02:26:46.770Z,942.78
2018-09-09T02:27:47.178Z,942.81
2018-09-09T02:28:47.867Z,942.78
2018-09-09T02:29:48.555Z,942.79
2018-09-09T02:30:49.260Z,942.82
2018-09-09T02:31:49.394Z,942.81
2018-09-09T02:32:50.084Z,942.79
2018-09-09T02:33:50.495Z,942.81
2018-09-09T02:34:51.459Z,942.82
2018-09-09T02:35:52.426Z,942.83
2018-09-09T02:36:52.847Z,942.82
2018-09-09T02:37:53.536Z,942.86
2018-09-09T02:38:53.952Z,942.88
2018-09-09T02:39:54.640Z,942.85
2018-09-09T02:40:54.904Z,942.88
2018-09-09T02:41:55.037Z,942.88
2018-09-09T02:42:55.731Z,942.9
2018-09-09T02:43:55.911Z,942.92
2018-09-09T02:44:56.274Z,942.9
2018-09-09T02:45:56.408Z,942.89
2018-09-09T02:46:56.820Z,942.86
2018-09-09T02:47:57.513Z,942.86
2018-09-09T02:48:58.203Z,942.87
2018-09-09T02:49:58.895Z,942.84
2018-09-09T02:50:59.434Z,942.86
2018-09-09T02:52:00.124Z,942.8
2018-09-09T02:53:00.809Z,942.86
2018-09-09T02:54:00.941Z,942.84
2018-09-09T02:55:01.906Z,942.81
2018-09-09T02:56:02.040Z,942.83
2018-09-09T02:57:02.449Z,942.85
2018-09-09T02:58:02.860Z,942.86
2018-09-09T02:59:03.276Z,942.85
2018-09-09T03:00:03.961Z,942.86
2018-09-09T03:01:04.268Z,942.86
2018-09-09T03:02:04.633Z,942.88
2018-09-09T03:03:04.765Z,942.88
2018-09-09T03:04:05.454Z,942.9
2018-09-09T03:05:06.143Z,942.92
2018-09-09T03:06:06.391Z,942.93
2018-09-09T03:07:07.366Z,942.93
2018-09-09T03:08:07.780Z,942.92
2018-09-09T03:09:08.465Z,942.92
2018-09-09T03:10:08.885Z,942.94
2018-09-09T03:11:09.257Z,942.95
2018-09-09T03:12:09.943Z,942.97
2018-09-09T03:13:10.355Z,942.95
2018-09-09T03:14:10.765Z,942.99
2018-09-09T03:15:11.180Z,942.98
2018-09-09T03:16:11.589Z,942.97
2018-09-09T03:17:12.276Z,943
2018-09-09T03:18:12.966Z,942.97
2018-09-09T03:19:13.104Z,942.97
2018-09-09T03:20:14.067Z,943.01
2018-09-09T03:21:14.604Z,942.97
2018-09-09T03:22:15.017Z,942.97
2018-09-09T03:23:15.986Z,942.98
2018-09-09T03:24:16.398Z,942.98
2018-09-09T03:25:16.531Z,942.98
2018-09-09T03:26:16.945Z,942.95
2018-09-09T03:27:17.077Z,942.96
2018-09-09T03:28:18.044Z,942.97
2018-09-09T03:29:18.478Z,942.97
2018-09-09T03:30:19.446Z,942.95
2018-09-09T03:31:19.982Z,942.97
2018-09-09T03:32:20.952Z,942.98
2018-09-09T03:33:21.496Z,942.95
2018-09-09T03:34:21.628Z,942.94
2018-09-09T03:35:22.328Z,942.98
2018-09-09T03:36:22.753Z,942.99
2018-09-09T03:37:23.165Z,942.95
2018-09-09T03:38:23.296Z,942.93
2018-09-09T03:39:23.705Z,942.95
2018-09-09T03:40:24.399Z,942.98
2018-09-09T03:41:24.949Z,943.02
2018-09-09T03:42:25.640Z,943.01
2018-09-09T03:43:26.071Z,943.01
2018-09-09T03:44:27.047Z,943.02
2018-09-09T03:45:28.011Z,943.05
2018-09-09T03:46:28.149Z,943
2018-09-09T03:47:28.834Z,943.04
2018-09-09T03:48:29.243Z,943.06
2018-09-09T03:49:29.655Z,943.07
2018-09-09T03:50:30.069Z,943.08
2018-09-09T03:51:30.443Z,943.07
2018-09-09T03:52:30.848Z,943.07
2018-09-09T03:53:31.540Z,943.08
2018-09-09T03:54:31.950Z,943.07
2018-09-09T03:55:32.641Z,943.04
2018-09-09T03:56:33.331Z,943.04
2018-09-09T03:57:34.301Z,943.06
2018-09-09T03:58:34.989Z,943.07
2018-09-09T03:59:35.681Z,943.07
2018-09-09T04:00:36.658Z,943.04
2018-09-09T04:01:36.922Z,943.03
2018-09-09T04:02:37.619Z,943.03
2018-09-09T04:03:38.308Z,943
2018-09-09T04:04:38.716Z,943.02
2018-09-09T04:05:38.959Z,943.01
2018-09-09T04:06:39.929Z,942.96
2018-09-09T04:07:40.894Z,943
2018-09-09T04:08:41.304Z,942.98
2018-09-09T04:09:41.716Z,943.02
2018-09-09T04:10:42.406Z,943.02
2018-09-09T04:11:43.391Z,943.04
2018-09-09T04:12:43.522Z,943.03
2018-09-09T04:13:44.212Z,943.04
2018-09-09T04:14:44.345Z,943.05
2018-09-09T04:15:44.480Z,943.06
2018-09-09T04:16:45.170Z,943.03
2018-09-09T04:17:46.134Z,943.04
2018-09-09T04:18:46.821Z,943.08
2018-09-09T04:19:46.961Z,943.08
2018-09-09T04:20:47.924Z,943.07
2018-09-09T04:21:48.737Z,943.06
2018-09-09T04:22:49.706Z,943.07
2018-09-09T04:23:50.396Z,943.07
2018-09-09T04:24:50.807Z,943.1
2018-09-09T04:25:51.218Z,943.13
2018-09-09T04:26:51.912Z,943.09
2018-09-09T04:27:52.322Z,943.13
2018-09-09T04:28:52.567Z,943.13
2018-09-09T04:29:53.533Z,943.15
2018-09-09T04:30:54.514Z,943.19
2018-09-09T04:31:55.270Z,943.13
2018-09-09T04:32:56.241Z,943.18
2018-09-09T04:33:56.648Z,943.16
2018-09-09T04:34:57.617Z,943.18
2018-09-09T04:35:57.750Z,943.19
2018-09-09T04:36:58.180Z,943.2
2018-09-09T04:37:58.597Z,943.18
2018-09-09T04:38:59.287Z,943.24
2018-09-09T04:39:59.997Z,943.23
2018-09-09T04:41:00.135Z,943.25
2018-09-09T04:42:00.680Z,943.21
2018-09-09T04:43:01.376Z,943.22
2018-09-09T04:44:01.787Z,943.24
2018-09-09T04:45:01.923Z,943.29
2018-09-09T04:46:02.057Z,943.28
2018-09-09T04:47:02.468Z,943.31
2018-09-09T04:48:02.880Z,943.27
2018-09-09T04:49:03.609Z,943.3
2018-09-09T04:49:16.896Z,943.31
2018-09-09T04:50:17.160Z,943.35
2018-09-09T04:51:18.127Z,943.34
2018-09-09T04:52:18.817Z,943.33
2018-09-09T04:53:18.825Z,943.33
2018-09-09T04:54:19.565Z,943.35
2018-09-09T04:55:20.533Z,943.39
2018-09-09T04:56:20.953Z,943.39
2018-09-09T04:57:21.371Z,943.35
2018-09-09T04:58:21.780Z,943.38
2018-09-09T04:59:22.196Z,943.37
2018-09-09T05:00:23.189Z,943.39
2018-09-09T05:01:24.238Z,943.39
2018-09-09T05:02:24.975Z,943.42
2018-09-09T05:03:25.386Z,943.38
2018-09-09T05:04:25.524Z,943.41
2018-09-09T05:05:26.495Z,943.43
2018-09-09T05:06:26.631Z,943.42
2018-09-09T05:07:27.049Z,943.41
2018-09-09T05:08:28.015Z,943.42
2018-09-09T05:09:28.270Z,943.4
2018-09-09T05:10:28.531Z,943.41
2018-09-09T05:11:29.224Z,943.43
2018-09-09T05:12:29.638Z,943.44
2018-09-09T05:13:30.328Z,943.47
2018-09-09T05:14:30.743Z,943.46
2018-09-09T05:15:31.714Z,943.5
2018-09-09T05:16:32.405Z,943.5
2018-09-09T05:17:33.098Z,943.5
2018-09-09T05:18:34.094Z,943.47
2018-09-09T05:19:34.508Z,943.52
2018-09-09T05:20:34.773Z,943.49
2018-09-09T05:21:35.185Z,943.48
2018-09-09T05:22:35.879Z,943.51
2018-09-09T05:23:36.295Z,943.52
2018-09-09T05:24:36.712Z,943.49
2018-09-09T05:25:36.853Z,943.55
2018-09-09T05:26:37.542Z,943.5
2018-09-09T05:27:37.679Z,943.5
2018-09-09T05:28:37.830Z,943.45
2018-09-09T05:29:38.244Z,943.48
2018-09-09T05:30:39.065Z,943.5
2018-09-09T05:31:39.479Z,943.45
2018-09-09T05:32:40.174Z,943.49
2018-09-09T05:33:40.607Z,943.48
2018-09-09T05:34:41.025Z,943.47
2018-09-09T05:35:41.716Z,943.48
2018-09-09T05:36:42.130Z,943.5
2018-09-09T05:37:42.267Z,943.49
2018-09-09T05:38:42.731Z,943.51
2018-09-09T05:39:43.426Z,943.52
2018-09-09T05:40:44.408Z,943.5
2018-09-09T05:41:45.100Z,943.47
2018-09-09T05:42:45.345Z,943.51
2018-09-09T05:43:45.761Z,943.52
2018-09-09T05:44:46.055Z,943.49
2018-09-09T05:45:46.035Z,943.52
2018-09-09T05:46:46.454Z,943.48
2018-09-09T05:47:46.867Z,943.51
2018-09-09T05:48:47.005Z,943.54
2018-09-09T05:49:47.424Z,943.51
2018-09-09T05:50:48.242Z,943.53
2018-09-09T05:51:48.381Z,943.5
2018-09-09T05:52:49.078Z,943.53
2018-09-09T05:53:49.233Z,943.53
2018-09-09T05:54:49.414Z,943.51
2018-09-09T05:55:49.663Z,943.5
2018-09-09T05:56:50.357Z,943.5
2018-09-09T05:57:50.848Z,943.53
2018-09-09T05:58:51.124Z,943.55
2018-09-09T05:59:51.265Z,943.54
2018-09-09T06:00:52.250Z,943.56
2018-09-09T06:01:52.947Z,943.6
2018-09-09T06:02:53.644Z,943.53
2018-09-09T06:03:53.784Z,943.53
2018-09-09T06:04:54.206Z,943.57
2018-09-09T06:05:54.903Z,943.56
2018-09-09T06:06:55.318Z,943.57
2018-09-09T06:07:55.568Z,943.57
2018-09-09T06:08:55.983Z,943.61
2018-09-09T06:09:56.399Z,943.63
2018-09-09T06:10:57.382Z,943.66
2018-09-09T06:11:57.800Z,943.65
2018-09-09T06:12:58.217Z,943.69
2018-09-09T06:13:58.634Z,943.66
2018-09-09T06:14:59.342Z,943.69
2018-09-09T06:16:00.040Z,943.73
2018-09-09T06:17:00.739Z,943.71
2018-09-09T06:18:01.160Z,943.76
2018-09-09T06:19:01.583Z,943.78
2018-09-09T06:20:02.001Z,943.81
2018-09-09T06:21:02.711Z,943.83
2018-09-09T06:22:03.410Z,943.85
2018-09-09T06:23:04.108Z,943.88
2018-09-09T06:24:04.528Z,943.82
2018-09-09T06:25:04.949Z,943.78
2018-09-09T06:26:05.377Z,943.82
2018-09-09T06:27:05.797Z,943.94
2018-09-09T06:28:06.217Z,943.96
2018-09-09T06:29:06.953Z,943.96
2018-09-09T06:30:07.098Z,943.86
2018-09-09T06:31:07.366Z,943.88
2018-09-09T06:32:07.509Z,943.85
2018-09-09T06:33:08.487Z,943.93
2018-09-09T06:34:08.908Z,943.98
2018-09-09T06:35:09.331Z,943.99
2018-09-09T06:36:09.471Z,943.93
2018-09-09T06:37:09.894Z,943.82
2018-09-09T06:38:10.037Z,943.87
2018-09-09T06:39:10.512Z,943.88
2018-09-09T06:40:10.993Z,943.84
2018-09-09T06:41:11.981Z,943.81
2018-09-09T06:42:12.123Z,943.81
2018-09-09T06:43:12.822Z,943.82
2018-09-09T06:44:12.968Z,943.78
2018-09-09T06:45:13.389Z,943.84
2018-09-09T06:46:13.532Z,943.83
2018-09-09T06:47:13.674Z,943.79
2018-09-09T06:48:14.097Z,943.79
2018-09-09T06:49:14.796Z,943.79
2018-09-09T06:50:14.940Z,943.8
2018-09-09T06:51:15.517Z,943.81
2018-09-09T06:52:15.629Z,943.78
2018-09-09T06:53:16.051Z,943.81
2018-09-09T06:54:16.472Z,943.81
2018-09-09T06:55:16.780Z,943.81
2018-09-09T06:56:17.512Z,943.83
2018-09-09T06:57:17.934Z,943.86
2018-09-09T06:58:18.076Z,943.83
2018-09-09T06:59:18.496Z,943.85
2018-09-09T07:00:18.917Z,943.83
2018-09-09T07:01:19.464Z,943.85
2018-09-09T07:02:19.937Z,943.83
2018-09-09T07:03:20.376Z,943.84
2018-09-09T07:04:20.520Z,943.84
2018-09-09T07:05:20.782Z,943.81
2018-09-09T07:06:21.035Z,943.81
2018-09-09T07:07:21.461Z,943.81
2018-09-09T07:08:21.879Z,943.79
2018-09-09T07:09:22.022Z,943.83
2018-09-09T07:10:22.164Z,943.86
2018-09-09T07:11:23.000Z,943.83
2018-09-09T07:12:23.870Z,943.82
2018-09-09T07:13:24.290Z,943.82
2018-09-09T07:14:24.712Z,943.79
2018-09-09T07:15:25.464Z,943.83
2018-09-09T07:16:26.161Z,943.79
2018-09-09T07:17:26.582Z,943.83
2018-09-09T07:18:27.003Z,943.78
2018-09-09T07:19:27.145Z,943.73
2018-09-09T07:20:27.286Z,943.73
2018-09-09T07:21:27.558Z,943.73
2018-09-09T07:22:28.324Z,943.74
2018-09-09T07:23:28.685Z,943.73
2018-09-09T07:24:29.385Z,943.75
2018-09-09T07:25:29.804Z,943.71
2018-09-09T07:26:29.946Z,943.76
2018-09-09T07:27:30.372Z,943.74
2018-09-09T07:28:30.859Z,943.77
2018-09-09T07:29:31.716Z,943.75
2018-09-09T07:30:32.136Z,943.75
2018-09-09T07:31:32.435Z,943.73
2018-09-09T07:32:32.580Z,943.75
2018-09-09T07:33:33.278Z,943.74
2018-09-09T07:34:33.979Z,943.74
2018-09-09T07:35:34.676Z,943.76
2018-09-09T07:36:35.374Z,943.75
2018-09-09T07:37:35.542Z,943.75
2018-09-09T07:38:35.793Z,943.75
2018-09-09T07:39:36.492Z,943.75
2018-09-09T07:40:37.192Z,943.75
2018-09-09T07:41:38.184Z,943.8
2018-09-09T07:42:38.882Z,943.82
2018-09-09T07:43:39.305Z,943.85
2018-09-09T07:44:40.005Z,943.84
2018-09-09T07:45:40.144Z,943.89
2018-09-09T07:46:40.286Z,943.88
2018-09-09T07:47:40.986Z,943.94
2018-09-09T07:48:41.688Z,943.92
2018-09-09T07:49:42.108Z,943.9
2018-09-09T07:50:42.323Z,943.92
2018-09-09T07:51:42.718Z,943.9
2018-09-09T07:52:43.138Z,943.91
2018-09-09T07:53:43.557Z,943.88
2018-09-09T07:54:44.534Z,943.91
2018-09-09T07:55:44.955Z,943.9
2018-09-09T07:56:45.374Z,943.9
2018-09-09T07:57:46.076Z,943.91
2018-09-09T07:58:46.216Z,943.88
2018-09-09T07:59:46.912Z,943.91
2018-09-09T08:00:47.055Z,943.92
2018-09-09T08:01:48.044Z,943.92
2018-09-09T08:02:48.509Z,943.94
2018-09-09T08:03:49.217Z,943.96
2018-09-09T08:04:50.186Z,943.97
2018-09-09T08:05:50.608Z,943.97
2018-09-09T08:06:50.751Z,943.96
2018-09-09T08:07:51.176Z,943.99
2018-09-09T08:08:51.321Z,943.97
2018-09-09T08:09:51.740Z,943.97
2018-09-09T08:10:52.716Z,943.99
2018-09-09T08:11:52.981Z,943.95
2018-09-09T08:12:53.403Z,943.97
2018-09-09T08:13:53.820Z,943.98
2018-09-09T08:14:54.012Z,943.98
2018-09-09T08:15:54.386Z,943.98
2018-09-09T08:16:54.529Z,943.99
2018-09-09T08:17:55.230Z,943.97
2018-09-09T08:18:55.931Z,943.99
2018-09-09T08:19:56.350Z,943.96
2018-09-09T08:20:57.058Z,944.02
2018-09-09T08:21:57.774Z,944.02
2018-09-09T08:22:57.918Z,944.02
2018-09-09T08:23:58.338Z,944.03
2018-09-09T08:24:58.484Z,944.03
2018-09-09T08:25:58.905Z,944.01
2018-09-09T08:26:59.322Z,944
2018-09-09T08:27:59.742Z,944.03
2018-09-09T08:29:00.161Z,944.01
2018-09-09T08:30:00.859Z,944.04
2018-09-09T08:31:01.706Z,944
2018-09-09T08:32:02.245Z,944.03
2018-09-09T08:33:02.388Z,944.06
2018-09-09T08:34:03.089Z,944.06
2018-09-09T08:35:03.788Z,944.08
2018-09-09T08:36:04.764Z,944.07
2018-09-09T08:37:05.491Z,944.02
2018-09-09T08:38:05.909Z,944.06
2018-09-09T08:39:06.049Z,944.05
2018-09-09T08:40:06.190Z,944.1
2018-09-09T08:41:06.608Z,944.04
2018-09-09T08:42:07.601Z,944.05
2018-09-09T08:43:08.027Z,944.08
2018-09-09T08:44:08.445Z,944.03
2018-09-09T08:45:08.589Z,944.04
2018-09-09T08:46:09.014Z,944.02
2018-09-09T08:47:09.719Z,944.01
2018-09-09T08:48:10.416Z,944.02
2018-09-09T08:49:10.562Z,944.04
2018-09-09T08:50:11.260Z,943.99
2018-09-09T08:51:12.237Z,944.03
2018-09-09T08:52:13.211Z,944.04
2018-09-09T08:53:13.841Z,944.04
2018-09-09T08:54:14.327Z,944.07
2018-09-09T08:55:14.937Z,944.08
2018-09-09T08:56:15.073Z,944.11
2018-09-09T08:57:15.772Z,944.09
2018-09-09T08:58:15.914Z,944.07
2018-09-09T08:59:16.615Z,944.09
2018-09-09T09:00:17.315Z,944.08
2018-09-09T09:01:18.013Z,944.07
2018-09-09T09:02:18.280Z,944.07
2018-09-09T09:03:18.703Z,944.09
2018-09-09T09:04:19.125Z,944.07
2018-09-09T09:05:19.545Z,944.11
2018-09-09T09:06:19.969Z,944.09
2018-09-09T09:07:20.427Z,944.06
2018-09-09T09:08:20.868Z,944.04
2018-09-09T09:09:21.563Z,944.04
2018-09-09T09:10:22.267Z,944.04
2018-09-09T09:11:22.963Z,944.05
2018-09-09T09:12:23.707Z,944.03
2018-09-09T09:13:24.829Z,944.03
2018-09-09T09:14:24.830Z,944.05
2018-09-09T09:15:25.256Z,944.14
2018-09-09T09:16:25.957Z,944.12
2018-09-09T09:17:26.379Z,944.06
2018-09-09T09:18:26.541Z,944.08
2018-09-09T09:19:27.301Z,944.14
2018-09-09T09:20:28.019Z,944.18
2018-09-09T09:21:28.393Z,944.15
2018-09-09T09:22:29.113Z,944.17
2018-09-09T09:23:30.167Z,944.16
2018-09-09T09:24:30.917Z,944.14
2018-09-09T09:25:31.618Z,944.16
2018-09-09T09:26:32.595Z,944.12
2018-09-09T09:27:33.023Z,944.13
2018-09-09T09:28:33.726Z,944.12
2018-09-09T09:29:34.151Z,944.12
2018-09-09T09:30:34.581Z,944.15
2018-09-09T09:31:34.748Z,944.12
2018-09-09T09:32:34.783Z,944.09
2018-09-09T09:33:35.211Z,944.1
2018-09-09T09:34:35.636Z,944.12
2018-09-09T09:35:36.060Z,944.09
2018-09-09T09:36:36.486Z,944.04
2018-09-09T09:37:36.631Z,944.09
2018-09-09T09:38:36.885Z,944.06
2018-09-09T09:39:37.032Z,944.07
2018-09-09T09:40:37.734Z,944.04
2018-09-09T09:41:38.160Z,944.03
2018-09-09T09:42:38.708Z,944.02
2018-09-09T09:43:39.199Z,944.05
2018-09-09T09:44:39.764Z,944.1
2018-09-09T09:45:39.829Z,944.11
2018-09-09T09:46:40.256Z,944.1
2018-09-09T09:47:40.403Z,944.12
2018-09-09T09:48:41.116Z,944.12
2018-09-09T09:49:41.262Z,944.07
2018-09-09T09:50:41.964Z,944.04
2018-09-09T09:51:42.669Z,944.06
2018-09-09T09:52:43.388Z,944.03
2018-09-09T09:53:43.534Z,944.03
2018-09-09T09:54:43.961Z,944
2018-09-09T09:55:44.666Z,944.03
2018-09-09T09:56:44.808Z,944.03
2018-09-09T09:57:45.512Z,944.03
2018-09-09T09:58:45.938Z,944.08
2018-09-09T09:59:46.091Z,944.07
2018-09-09T10:00:46.506Z,944.05
2018-09-09T10:01:47.208Z,944.06
2018-09-09T10:02:47.755Z,944.07
2018-09-09T10:03:48.179Z,944.09
2018-09-09T10:04:48.609Z,944.09
2018-09-09T10:05:48.634Z,944.09
2018-09-09T10:06:48.782Z,944.1
2018-09-09T10:07:49.208Z,944.07
2018-09-09T10:08:49.357Z,944.12
2018-09-09T10:09:49.787Z,944.07
2018-09-09T10:10:49.936Z,944.06
2018-09-09T10:11:50.361Z,944.06
2018-09-09T10:12:50.917Z,944.06
2018-09-09T10:13:51.340Z,944.03
2018-09-09T10:14:52.046Z,944.04
2018-09-09T10:15:52.194Z,944
2018-09-09T10:16:52.620Z,944.01
2018-09-09T10:17:53.324Z,944.01
2018-09-09T10:18:54.030Z,944.06
2018-09-09T10:19:54.737Z,944.02
2018-09-09T10:20:55.443Z,944.02
2018-09-09T10:21:56.148Z,944.01
2018-09-09T10:22:56.875Z,943.99
2018-09-09T10:23:57.298Z,943.99
2018-09-09T10:24:58.279Z,944.02
2018-09-09T10:25:58.428Z,944.01
2018-09-09T10:26:58.579Z,943.98
2018-09-09T10:27:59.009Z,943.97
2018-09-09T10:28:59.438Z,944.01
2018-09-09T10:29:59.597Z,943.99
2018-09-09T10:31:00.018Z,944
2018-09-09T10:32:00.172Z,944
2018-09-09T10:33:01.009Z,943.99
2018-09-09T10:34:01.720Z,943.95
2018-09-09T10:35:02.435Z,944
2018-09-09T10:36:02.586Z,943.98
2018-09-09T10:37:03.571Z,943.95
2018-09-09T10:38:04.001Z,943.93
2018-09-09T10:39:05.542Z,943.91
2018-09-09T10:40:05.967Z,943.93
2018-09-09T10:41:06.398Z,943.93
2018-09-09T10:42:06.830Z,943.95
2018-09-09T10:43:07.835Z,943.92
2018-09-09T10:44:08.539Z,943.88
2018-09-09T10:45:09.313Z,943.86
2018-09-09T10:46:09.467Z,943.85
2018-09-09T10:47:10.279Z,943.89
2018-09-09T10:48:11.190Z,943.86
2018-09-09T10:49:11.900Z,943.89
2018-09-09T10:50:12.334Z,943.88
2018-09-09T10:51:12.486Z,943.84
2018-09-09T10:52:12.563Z,943.81
2018-09-09T10:53:12.949Z,943.84
2018-09-09T10:54:13.138Z,943.82
2018-09-09T10:55:13.572Z,943.77
2018-09-09T10:56:14.004Z,943.75
2018-09-09T10:57:14.156Z,943.75
2018-09-09T10:58:14.591Z,943.78
2018-09-09T10:59:15.296Z,943.77
2018-09-09T11:00:16.010Z,943.74
2018-09-09T11:01:16.762Z,943.75
2018-09-09T11:02:17.428Z,943.71
2018-09-09T11:03:17.979Z,943.74
2018-09-09T11:04:18.688Z,943.72
2018-09-09T11:05:18.840Z,943.73
2018-09-09T11:06:18.993Z,943.75
2018-09-09T11:07:19.703Z,943.74
2018-09-09T11:08:19.856Z,943.72
2018-09-09T11:09:20.565Z,943.69
2018-09-09T11:10:20.720Z,943.69
2018-09-09T11:11:21.149Z,943.69
2018-09-09T11:12:21.581Z,943.69
2018-09-09T11:13:21.876Z,943.72
2018-09-09T11:14:22.029Z,943.73
2018-09-09T11:15:22.734Z,943.71
2018-09-09T11:16:23.166Z,943.72
2018-09-09T11:17:23.324Z,943.71
2018-09-09T11:18:23.473Z,943.72
2018-09-09T11:19:23.997Z,943.71
2018-09-09T11:20:24.492Z,943.73
2018-09-09T11:21:25.201Z,943.67
2018-09-09T11:22:25.631Z,943.7
2018-09-09T11:23:26.193Z,943.65
2018-09-09T11:24:26.392Z,943.61
2018-09-09T11:25:26.446Z,943.64
2018-09-09T11:26:27.160Z,943.66
2018-09-09T11:27:27.590Z,943.66
2018-09-09T11:28:28.577Z,943.69
2018-09-09T11:29:29.021Z,943.65
2018-09-09T11:30:30.004Z,943.64
2018-09-09T11:31:30.714Z,943.63
2018-09-09T11:32:31.148Z,943.67
2018-09-09T11:33:31.705Z,943.67
2018-09-09T11:34:32.136Z,943.67
2018-09-09T11:35:32.289Z,943.64
2018-09-09T11:36:32.722Z,943.6
2018-09-09T11:37:32.873Z,943.61
2018-09-09T11:38:33.305Z,943.64
2018-09-09T11:39:34.291Z,943.61
2018-09-09T11:40:34.481Z,943.62
2018-09-09T11:41:34.531Z,943.61
2018-09-09T11:42:35.236Z,943.63
2018-09-09T11:43:36.236Z,943.62
2018-09-09T11:44:36.944Z,943.61
2018-09-09T11:45:37.101Z,943.62
2018-09-09T11:46:37.812Z,943.66
2018-09-09T11:47:38.522Z,943.64
2018-09-09T11:48:39.229Z,943.66
2018-09-09T11:49:39.384Z,943.65
2018-09-09T11:50:39.822Z,943.6
2018-09-09T11:51:40.539Z,943.63
2018-09-09T11:52:40.967Z,943.65
2018-09-09T11:53:41.381Z,943.64
2018-09-09T11:54:42.088Z,943.67
2018-09-09T11:55:42.796Z,943.65
2018-09-09T11:56:43.226Z,943.66
2018-09-09T11:57:43.656Z,943.65
2018-09-09T11:58:43.810Z,943.63
2018-09-09T11:59:44.235Z,943.58
2018-09-09T12:00:44.948Z,943.62
2018-09-09T12:01:45.376Z,943.58
2018-09-09T12:02:45.528Z,943.58
2018-09-09T12:03:46.526Z,943.59
2018-09-09T12:04:46.681Z,943.56
2018-09-09T12:05:46.859Z,943.57
2018-09-09T12:06:47.568Z,943.56
2018-09-09T12:07:48.275Z,943.55
2018-09-09T12:08:48.704Z,943.54
2018-09-09T12:09:49.411Z,943.58
2018-09-09T12:10:50.118Z,943.56
2018-09-09T12:11:50.546Z,943.53
2018-09-09T12:12:51.259Z,943.53
2018-09-09T12:13:52.256Z,943.57
2018-09-09T12:14:52.685Z,943.59
2018-09-09T12:15:53.114Z,943.64
2018-09-09T12:16:53.541Z,943.64
2018-09-09T12:17:53.973Z,943.61
2018-09-09T12:18:54.403Z,943.62
2018-09-09T12:19:54.557Z,943.65
2018-09-09T12:20:54.989Z,943.63
2018-09-09T12:21:55.416Z,943.61
2018-09-09T12:22:55.573Z,943.62
2018-09-09T12:23:56.439Z,943.6
2018-09-09T12:24:57.143Z,943.61
2018-09-09T12:25:57.575Z,943.58
2018-09-09T12:26:58.004Z,943.56
2018-09-09T12:27:58.434Z,943.57
2018-09-09T12:28:58.871Z,943.55
2018-09-09T12:29:59.014Z,943.54
2018-09-09T12:30:59.721Z,943.49
2018-09-09T12:31:59.871Z,943.52
2018-09-09T12:33:00.331Z,943.52
2018-09-09T12:34:00.888Z,943.51
2018-09-09T12:35:01.321Z,943.5
2018-09-09T12:36:02.029Z,943.5
2018-09-09T12:37:02.459Z,943.47